createdAt,value
2018-03-20T00:00:37.803Z,-2.27
2018-03-20T00:03:05.214Z,-2.30
2018-03-20T00:05:32.632Z,-2.29
2018-03-20T00:08:00.057Z,-2.32
2018-03-20T00:10:27.464Z,-2.32
2018-03-20T00:12:54.891Z,-2.31
2018-03-20T00:15:22.305Z,-2.34
2018-03-20T00:17:49.731Z,-2.38
2018-03-20T00:20:17.142Z,-2.38
2018-03-20T00:22:44.563Z,-2.37
2018-03-20T00:25:11.979Z,-2.39
2018-03-20T00:27:39.395Z,-2.37
2018-03-20T00:30:06.811Z,-2.40
2018-03-20T00:32:34.226Z,-2.40
2018-03-20T00:35:01.630Z,-2.39
2018-03-20T00:37:29.055Z,-2.35
2018-03-20T00:39:56.461Z,-2.44
2018-03-20T00:42:23.887Z,-2.50
2018-03-20T00:44:51.311Z,-2.58
2018-03-20T00:47:19.568Z,-2.67
2018-03-20T00:49:46.974Z,-2.69
2018-03-20T00:52:14.405Z,-2.79
2018-03-20T00:54:41.805Z,-2.79
2018-03-20T00:57:09.236Z,-2.81
2018-03-20T00:59:36.662Z,-2.93
2018-03-20T01:02:04.074Z,-3.01
2018-03-20T01:04:31.486Z,-3.05
2018-03-20T01:06:58.914Z,-3.12
2018-03-20T01:09:26.333Z,-3.11
2018-03-20T01:11:53.751Z,-3.09
2018-03-20T01:14:21.162Z,-2.99
2018-03-20T01:16:48.589Z,-3.09
2018-03-20T01:19:15.997Z,-3.13
2018-03-20T01:21:43.416Z,-3.09
2018-03-20T01:24:10.847Z,-3.12
2018-03-20T01:26:38.264Z,-3.08
2018-03-20T01:29:05.680Z,-3.17
2018-03-20T01:31:33.081Z,-3.12
2018-03-20T01:34:00.506Z,-3.21
2018-03-20T01:36:27.922Z,-3.09
2018-03-20T01:38:55.343Z,-3.20
2018-03-20T01:41:22.770Z,-3.17
2018-03-20T01:43:51.197Z,-3.13
2018-03-20T01:46:18.610Z,-3.26
2018-03-20T01:48:46.039Z,-3.29
2018-03-20T01:51:13.454Z,-3.26
2018-03-20T01:53:40.866Z,-3.30
2018-03-20T01:56:08.275Z,-3.26
2018-03-20T01:58:35.693Z,-3.29
2018-03-20T02:01:03.109Z,-3.28
2018-03-20T02:03:30.531Z,-3.29
2018-03-20T02:05:57.962Z,-3.32
2018-03-20T02:08:25.379Z,-3.29
2018-03-20T02:10:52.783Z,-3.33
2018-03-20T02:13:20.223Z,-3.27
2018-03-20T02:15:47.650Z,-3.35
2018-03-20T02:18:15.070Z,-3.38
2018-03-20T02:20:42.480Z,-3.42
2018-03-20T02:23:09.890Z,-3.42
2018-03-20T02:25:37.306Z,-3.46
2018-03-20T02:28:04.736Z,-3.50
2018-03-20T02:30:32.147Z,-3.56
2018-03-20T02:32:59.560Z,-3.55
2018-03-20T02:35:26.978Z,-3.54
2018-03-20T02:37:54.398Z,-3.61
2018-03-20T02:40:21.811Z,-3.66
2018-03-20T02:42:49.226Z,-3.57
2018-03-20T02:45:16.635Z,-3.50
2018-03-20T02:47:44.050Z,-3.62
2018-03-20T02:50:11.473Z,-3.61
2018-03-20T02:52:38.881Z,-3.69
2018-03-20T02:55:06.316Z,-3.67
2018-03-20T02:57:33.739Z,-3.68
2018-03-20T03:00:01.148Z,-3.70
2018-03-20T03:02:28.565Z,-3.69
2018-03-20T03:04:55.988Z,-3.69
2018-03-20T03:07:23.869Z,-3.80
2018-03-20T03:09:51.293Z,-3.85
2018-03-20T03:12:18.699Z,-3.74
2018-03-20T03:14:46.115Z,-3.84
2018-03-20T03:17:13.523Z,-3.81
2018-03-20T03:19:40.941Z,-3.82
2018-03-20T03:22:08.355Z,-3.91
2018-03-20T03:24:35.772Z,-3.92
2018-03-20T03:27:03.170Z,-3.74
2018-03-20T03:29:30.593Z,-3.64
2018-03-20T03:31:58.004Z,-3.77
2018-03-20T03:34:25.443Z,-3.75
2018-03-20T03:36:53.532Z,-3.91
2018-03-20T03:39:21.009Z,-4.04
2018-03-20T03:41:48.418Z,-3.84
2018-03-20T03:44:15.854Z,-3.83
2018-03-20T03:46:43.264Z,-4.00
2018-03-20T03:49:10.677Z,-3.97
2018-03-20T03:51:38.101Z,-4.07
2018-03-20T03:56:40.054Z,-3.94
2018-03-20T03:59:07.474Z,-3.98
2018-03-20T04:01:34.890Z,-4.06
2018-03-20T04:04:02.327Z,-4.28
2018-03-20T04:06:29.751Z,-4.34
2018-03-20T04:08:57.161Z,-4.53
2018-03-20T04:11:24.574Z,-4.56
2018-03-20T04:13:52.137Z,-4.53
2018-03-20T04:16:19.560Z,-4.49
2018-03-20T04:18:46.979Z,-4.58
2018-03-20T04:21:14.402Z,-4.51
2018-03-20T04:23:41.847Z,-4.57
2018-03-20T04:26:09.267Z,-4.63
2018-03-20T04:28:36.689Z,-4.61
2018-03-20T04:31:04.117Z,-4.71
2018-03-20T04:33:31.534Z,-4.72
2018-03-20T04:35:58.945Z,-4.81
2018-03-20T04:38:26.733Z,-4.76
2018-03-20T04:40:54.158Z,-4.78
2018-03-20T04:43:21.583Z,-4.82
2018-03-20T04:45:48.993Z,-4.85
2018-03-20T04:48:16.410Z,-4.88
2018-03-20T04:50:43.835Z,-4.79
2018-03-20T04:53:11.247Z,-4.77
2018-03-20T04:55:38.669Z,-4.73
2018-03-20T04:58:06.077Z,-4.70
2018-03-20T05:00:33.499Z,-4.82
2018-03-20T05:03:00.905Z,-4.89
2018-03-20T05:05:28.322Z,-4.78
2018-03-20T05:07:55.739Z,-4.88
2018-03-20T05:10:23.159Z,-4.90
2018-03-20T05:12:50.582Z,-4.97
2018-03-20T05:15:17.991Z,-4.97
2018-03-20T05:17:46.906Z,-4.96
2018-03-20T05:23:29.582Z,-4.72
2018-03-20T05:25:57.229Z,-4.44
2018-03-20T05:28:24.648Z,-4.24
2018-03-20T05:30:53.561Z,-4.53
2018-03-20T05:33:21.045Z,-4.69
2018-03-20T05:35:48.477Z,-4.94
2018-03-20T05:38:15.888Z,-4.91
2018-03-20T05:40:43.305Z,-4.91
2018-03-20T05:43:10.720Z,-4.87
2018-03-20T05:45:38.160Z,-4.88
2018-03-20T05:48:11.174Z,-5.09
2018-03-20T05:53:44.078Z,-5.04
2018-03-20T05:56:11.502Z,-5.07
2018-03-20T05:58:38.975Z,-5.04
2018-03-20T06:01:06.366Z,-4.85
2018-03-20T06:03:33.778Z,-4.68
2018-03-20T06:06:01.212Z,-4.72
2018-03-20T06:08:28.626Z,-4.77
2018-03-20T06:10:56.049Z,-4.72
2018-03-20T06:13:23.470Z,-4.60
2018-03-20T06:15:50.905Z,-4.66
2018-03-20T06:18:18.330Z,-4.51
2018-03-20T06:20:45.756Z,-4.36
2018-03-20T06:23:13.184Z,-4.26
2018-03-20T06:25:40.610Z,-4.30
2018-03-20T06:28:08.040Z,-4.10
2018-03-20T06:30:35.458Z,-4.08
2018-03-20T06:33:02.884Z,-3.94
2018-03-20T06:35:31.074Z,-3.56
2018-03-20T06:37:58.517Z,-3.44
2018-03-20T06:40:25.916Z,-3.52
2018-03-20T06:42:53.334Z,-3.36
2018-03-20T06:45:20.761Z,-3.28
2018-03-20T06:47:48.199Z,-3.35
2018-03-20T06:50:15.620Z,-3.13
2018-03-20T06:52:43.039Z,-3.13
2018-03-20T06:55:10.459Z,-3.07
2018-03-20T06:57:37.874Z,-3.07
2018-03-20T07:00:05.290Z,-3.21
2018-03-20T07:02:32.727Z,-3.17
2018-03-20T07:05:00.139Z,-3.02
2018-03-20T07:07:27.566Z,-2.87
2018-03-20T07:09:54.986Z,-2.83
2018-03-20T07:12:22.410Z,-2.51
2018-03-20T07:14:49.823Z,-2.16
2018-03-20T07:17:17.269Z,-2.24
2018-03-20T07:19:44.678Z,-2.34
2018-03-20T07:22:12.106Z,-2.48
2018-03-20T07:24:39.535Z,-2.55
2018-03-20T07:27:06.954Z,-2.49
2018-03-20T07:29:34.365Z,-2.34
2018-03-20T07:32:01.820Z,-2.22
2018-03-20T07:34:29.265Z,-2.18
2018-03-20T07:36:56.642Z,-1.98
2018-03-20T07:39:24.058Z,-1.83
2018-03-20T07:41:51.494Z,-1.84
2018-03-20T07:44:18.934Z,-1.61
2018-03-20T07:46:46.348Z,-1.88
2018-03-20T07:49:13.783Z,-1.97
2018-03-20T07:51:41.195Z,-1.71
2018-03-20T07:54:08.625Z,-1.60
2018-03-20T07:56:36.034Z,-1.48
2018-03-20T07:59:04.295Z,-1.41
2018-03-20T08:01:31.714Z,-1.25
2018-03-20T08:03:59.141Z,-1.24
2018-03-20T08:06:26.549Z,-1.35
2018-03-20T08:08:53.971Z,-1.38
2018-03-20T08:11:21.416Z,-1.39
2018-03-20T08:13:48.881Z,-0.96
2018-03-20T08:16:16.259Z,-0.75
2018-03-20T08:18:43.688Z,-1.04
2018-03-20T08:21:11.101Z,-0.98
2018-03-20T08:23:38.528Z,-0.74
2018-03-20T08:26:05.942Z,-0.82
2018-03-20T08:28:33.366Z,-0.88
2018-03-20T08:31:00.798Z,-1.00
2018-03-20T08:33:28.226Z,-0.89
2018-03-20T08:35:55.650Z,-0.68
2018-03-20T08:38:23.070Z,-0.51
2018-03-20T08:40:50.486Z,-0.55
2018-03-20T08:43:17.911Z,-0.48
2018-03-20T08:45:45.340Z,-0.24
2018-03-20T08:48:12.760Z,-0.23
2018-03-20T08:50:40.180Z,-0.34
2018-03-20T08:53:07.598Z,-0.08
2018-03-20T08:55:35.020Z,-0.32
2018-03-20T08:58:02.434Z,-0.26
2018-03-20T09:00:29.859Z,-0.03
2018-03-20T09:02:57.293Z,-0.08
2018-03-20T09:05:24.707Z,0.02
2018-03-20T09:07:52.122Z,0.14
2018-03-20T09:10:19.537Z,0.20
2018-03-20T09:12:46.962Z,0.50
2018-03-20T09:15:14.381Z,0.30
2018-03-20T09:17:41.791Z,0.57
2018-03-20T09:20:09.207Z,0.72
2018-03-20T09:22:36.618Z,0.62
2018-03-20T09:25:04.466Z,0.51
2018-03-20T09:27:31.878Z,0.77
2018-03-20T09:29:59.297Z,0.72
2018-03-20T09:32:26.709Z,0.70
2018-03-20T09:34:54.141Z,0.99
2018-03-20T09:37:21.556Z,0.92
2018-03-20T09:39:48.975Z,0.83
2018-03-20T09:42:16.382Z,0.76
2018-03-20T09:44:43.797Z,0.97
2018-03-20T09:47:11.202Z,1.25
2018-03-20T09:49:38.985Z,1.58
2018-03-20T09:52:06.394Z,1.52
2018-03-20T09:54:33.811Z,1.19
2018-03-20T09:57:01.219Z,1.52
2018-03-20T09:59:28.637Z,1.75
2018-03-20T10:01:56.046Z,2.14
2018-03-20T10:04:23.473Z,2.47
2018-03-20T10:06:50.874Z,2.79
2018-03-20T10:09:18.290Z,3.11
2018-03-20T10:11:45.702Z,2.63
2018-03-20T10:14:13.130Z,3.16
2018-03-20T10:16:40.534Z,3.44
2018-03-20T10:19:07.950Z,3.62
2018-03-20T10:21:35.362Z,3.47
2018-03-20T10:24:02.783Z,2.96
2018-03-20T10:26:30.187Z,3.26
2018-03-20T10:28:57.614Z,3.51
2018-03-20T10:31:25.026Z,3.50
2018-03-20T10:33:52.444Z,3.67
2018-03-20T10:36:19.928Z,2.90
2018-03-20T10:38:47.324Z,3.12
2018-03-20T10:41:14.747Z,3.00
2018-03-20T10:43:42.168Z,3.20
2018-03-20T10:46:09.573Z,2.59
2018-03-20T10:48:36.987Z,2.96
2018-03-20T10:51:04.408Z,3.36
2018-03-20T10:53:31.808Z,3.47
2018-03-20T10:55:59.225Z,3.29
2018-03-20T10:58:26.627Z,2.93
2018-03-20T11:00:59.727Z,3.41
2018-03-20T11:03:27.132Z,3.74
2018-03-20T11:05:54.546Z,3.93
2018-03-20T11:08:21.958Z,4.18
2018-03-20T11:10:49.370Z,4.63
2018-03-20T11:13:16.778Z,4.32
2018-03-20T11:15:44.190Z,4.44
2018-03-20T11:18:11.599Z,4.68
2018-03-20T11:20:39.025Z,5.11
2018-03-20T11:23:06.427Z,5.39
2018-03-20T11:25:33.843Z,4.79
2018-03-20T11:28:01.251Z,4.73
2018-03-20T11:30:28.700Z,4.77
2018-03-20T11:32:56.100Z,3.88
2018-03-20T11:35:23.518Z,3.52
2018-03-20T11:37:50.939Z,3.31
2018-03-20T11:40:18.351Z,3.40
2018-03-20T11:42:45.770Z,3.25
2018-03-20T11:45:14.237Z,3.15
2018-03-20T11:47:41.639Z,3.23
2018-03-20T11:50:09.051Z,2.74
2018-03-20T11:52:36.455Z,2.77
2018-03-20T11:55:03.861Z,2.40
2018-03-20T11:57:31.265Z,2.30
2018-03-20T11:59:58.704Z,2.27
2018-03-20T12:02:26.112Z,1.91
2018-03-20T12:04:53.530Z,2.05
2018-03-20T12:07:20.939Z,2.12
2018-03-20T12:09:49.260Z,2.04
2018-03-20T12:12:16.678Z,2.33
2018-03-20T12:14:44.082Z,2.34
2018-03-20T12:17:11.497Z,2.18
2018-03-20T12:19:38.901Z,1.96
2018-03-20T12:22:06.323Z,1.42
2018-03-20T12:24:33.731Z,1.39
2018-03-20T12:27:01.150Z,1.48
2018-03-20T12:29:28.563Z,1.56
2018-03-20T12:31:56.030Z,1.93
2018-03-20T12:34:23.393Z,2.13
2018-03-20T12:36:50.802Z,2.50
2018-03-20T12:39:18.205Z,2.07
2018-03-20T12:41:46.634Z,2.25
2018-03-20T12:44:14.042Z,2.57
2018-03-20T12:46:41.534Z,2.28
2018-03-20T12:49:08.869Z,2.27
2018-03-20T12:51:36.282Z,2.30
2018-03-20T12:54:03.691Z,1.86
2018-03-20T12:56:31.127Z,2.13
2018-03-20T12:58:58.529Z,2.11
2018-03-20T13:01:26.002Z,1.84
2018-03-20T13:03:53.359Z,1.82
2018-03-20T13:06:20.798Z,1.61
2018-03-20T13:08:48.218Z,1.74
2018-03-20T13:11:15.627Z,1.91
2018-03-20T13:13:43.039Z,1.78
2018-03-20T13:16:10.738Z,1.89
2018-03-20T13:18:38.158Z,1.61
2018-03-20T13:21:05.585Z,2.04
2018-03-20T13:23:32.991Z,2.03
2018-03-20T13:26:00.412Z,1.93
2018-03-20T13:28:27.823Z,2.17
2018-03-20T13:30:55.244Z,2.08
2018-03-20T13:33:22.660Z,2.06
2018-03-20T13:35:50.071Z,2.11
2018-03-20T13:38:18.086Z,2.17
2018-03-20T13:40:45.492Z,2.31
2018-03-20T13:43:12.914Z,2.38
2018-03-20T13:45:40.328Z,2.52
2018-03-20T13:48:07.737Z,2.35
2018-03-20T13:50:35.154Z,2.13
2018-03-20T13:53:02.587Z,1.40
2018-03-20T13:55:30.004Z,1.21
2018-03-20T13:57:57.426Z,1.26
2018-03-20T14:00:24.851Z,1.28
2018-03-20T14:02:52.273Z,1.25
2018-03-20T14:05:19.683Z,1.26
2018-03-20T14:07:47.100Z,1.09
2018-03-20T14:10:14.514Z,0.79
2018-03-20T14:12:41.921Z,0.82
2018-03-20T14:15:09.326Z,0.84
2018-03-20T14:17:36.755Z,0.74
2018-03-20T14:20:04.157Z,0.69
2018-03-20T14:22:31.582Z,0.87
2018-03-20T14:24:59.000Z,0.69
2018-03-20T14:27:26.441Z,0.87
2018-03-20T14:29:53.842Z,1.13
2018-03-20T14:32:21.263Z,1.11
2018-03-20T14:34:49.442Z,1.16
2018-03-20T14:37:16.863Z,1.02
2018-03-20T14:39:44.279Z,1.09
2018-03-20T14:42:11.703Z,1.06
2018-03-20T14:44:39.111Z,1.08
2018-03-20T14:47:06.523Z,1.10
2018-03-20T14:49:33.930Z,1.03
2018-03-20T14:52:01.414Z,1.01
2018-03-20T14:54:28.831Z,1.04
2018-03-20T14:56:56.250Z,0.69
2018-03-20T14:59:23.658Z,0.90
2018-03-20T15:01:51.142Z,0.93
2018-03-20T15:04:18.502Z,1.02
2018-03-20T15:06:45.919Z,0.98
2018-03-20T15:09:13.334Z,0.88
2018-03-20T15:11:40.740Z,0.97
2018-03-20T15:14:08.171Z,0.82
2018-03-20T15:16:35.578Z,0.91
2018-03-20T15:19:02.999Z,0.98
2018-03-20T15:21:30.403Z,1.03
2018-03-20T15:23:57.824Z,1.06
2018-03-20T15:26:25.230Z,0.90
2018-03-20T15:28:52.664Z,1.07
2018-03-20T15:31:21.042Z,0.86
2018-03-20T15:33:48.453Z,1.05
2018-03-20T15:36:15.862Z,1.00
2018-03-20T15:38:43.282Z,1.17
2018-03-20T15:41:10.708Z,1.13
2018-03-20T15:43:38.121Z,1.12
2018-03-20T15:46:05.528Z,1.09
2018-03-20T15:48:32.949Z,1.06
2018-03-20T15:51:00.365Z,1.07
2018-03-20T15:53:27.786Z,1.38
2018-03-20T15:55:55.219Z,1.31
2018-03-20T15:58:22.648Z,1.21
2018-03-20T16:00:50.051Z,1.41
2018-03-20T16:03:17.466Z,1.13
2018-03-20T16:05:44.893Z,0.86
2018-03-20T16:08:12.305Z,1.09
2018-03-20T16:10:39.773Z,1.14
2018-03-20T16:13:07.207Z,1.12
2018-03-20T16:15:34.621Z,1.08
2018-03-20T16:18:02.038Z,0.99
2018-03-20T16:20:29.454Z,1.08
2018-03-20T16:22:56.919Z,1.05
2018-03-20T16:25:24.291Z,1.24
2018-03-20T16:27:51.707Z,1.45
2018-03-20T16:30:19.118Z,1.27
2018-03-20T16:32:46.537Z,1.15
2018-03-20T16:35:13.947Z,1.08
2018-03-20T16:37:41.367Z,1.10
2018-03-20T16:40:08.791Z,1.19
2018-03-20T16:42:36.198Z,1.09
2018-03-20T16:45:03.614Z,1.01
2018-03-20T16:47:31.036Z,0.96
2018-03-20T16:49:58.451Z,1.04
2018-03-20T16:52:25.870Z,1.06
2018-03-20T16:54:53.586Z,1.00
2018-03-20T16:57:21.024Z,0.95
2018-03-20T16:59:48.492Z,1.00
2018-03-20T17:02:15.866Z,1.05
2018-03-20T17:04:43.278Z,1.12
2018-03-20T17:07:10.694Z,0.98
2018-03-20T17:09:39.254Z,1.04
2018-03-20T17:12:06.663Z,1.03
2018-03-20T17:14:34.183Z,1.12
2018-03-20T17:17:01.598Z,1.14
2018-03-20T17:19:29.037Z,1.24
2018-03-20T17:21:56.446Z,0.93
2018-03-20T17:24:24.618Z,0.86
2018-03-20T17:26:52.034Z,0.80
2018-03-20T17:29:19.454Z,0.72
2018-03-20T17:31:46.871Z,0.70
2018-03-20T17:34:14.296Z,0.79
2018-03-20T17:36:41.702Z,0.82
2018-03-20T17:39:09.120Z,0.84
2018-03-20T17:41:36.534Z,0.90
2018-03-20T17:44:03.965Z,0.73
2018-03-20T17:46:31.372Z,0.69
2018-03-20T17:48:58.788Z,0.66
2018-03-20T17:51:26.208Z,0.64
2018-03-20T17:53:53.624Z,0.62
2018-03-20T17:56:21.032Z,0.56
2018-03-20T17:58:48.544Z,0.56
2018-03-20T18:01:15.953Z,0.62
2018-03-20T18:03:43.365Z,0.53
2018-03-20T18:06:10.773Z,0.45
2018-03-20T18:08:38.201Z,0.36
2018-03-20T18:11:05.615Z,0.40
2018-03-20T18:13:33.042Z,0.34
2018-03-20T18:16:00.465Z,0.32
2018-03-20T18:18:27.873Z,0.34
2018-03-20T18:20:55.303Z,0.33
2018-03-20T18:23:22.710Z,0.38
2018-03-20T18:25:50.147Z,0.41
2018-03-20T18:28:17.564Z,0.54
2018-03-20T18:30:44.982Z,0.54
2018-03-20T18:33:12.392Z,0.60
2018-03-20T18:35:39.806Z,0.57
2018-03-20T18:38:07.210Z,0.67
2018-03-20T18:40:34.646Z,0.89
2018-03-20T18:43:02.077Z,0.94
2018-03-20T18:45:29.490Z,0.77
2018-03-20T18:47:57.470Z,1.12
2018-03-20T18:50:24.886Z,1.24
2018-03-20T18:52:52.302Z,1.13
2018-03-20T18:55:19.730Z,1.06
2018-03-20T18:57:47.141Z,0.95
2018-03-20T19:00:14.600Z,1.14
2018-03-20T19:02:41.987Z,1.51
2018-03-20T19:05:09.415Z,1.54
2018-03-20T19:07:36.826Z,1.69
2018-03-20T19:10:04.394Z,1.42
2018-03-20T19:12:31.857Z,1.49
2018-03-20T19:14:59.271Z,1.38
2018-03-20T19:17:26.681Z,1.26
2018-03-20T19:19:54.098Z,0.93
2018-03-20T19:22:21.518Z,1.21
2018-03-20T19:24:48.930Z,1.41
2018-03-20T19:27:16.345Z,1.35
2018-03-20T19:29:43.761Z,1.25
2018-03-20T19:32:11.176Z,1.32
2018-03-20T19:34:38.613Z,1.38
2018-03-20T19:37:06.039Z,1.30
2018-03-20T19:39:33.450Z,1.06
2018-03-20T19:42:00.982Z,0.73
2018-03-20T19:44:28.534Z,0.98
2018-03-20T19:46:56.392Z,1.08
2018-03-20T19:49:23.911Z,0.90
2018-03-20T19:51:51.347Z,0.80
2018-03-20T19:54:19.712Z,0.88
2018-03-20T19:56:47.139Z,0.88
2018-03-20T19:59:14.562Z,0.79
2018-03-20T20:01:41.973Z,0.78
2018-03-20T20:04:09.391Z,0.74
2018-03-20T20:06:36.812Z,0.81
2018-03-20T20:09:04.225Z,0.73
2018-03-20T20:11:31.637Z,0.80
2018-03-20T20:13:59.053Z,0.70
2018-03-20T20:16:26.468Z,0.72
2018-03-20T20:18:53.877Z,0.76
2018-03-20T20:21:21.315Z,0.79
2018-03-20T20:23:48.719Z,0.78
2018-03-20T20:26:16.146Z,0.87
2018-03-20T20:28:43.569Z,0.80
2018-03-20T20:31:10.986Z,0.89
2018-03-20T20:33:38.410Z,0.85
2018-03-20T20:36:05.831Z,0.85
2018-03-20T20:38:33.262Z,0.80
2018-03-20T20:41:01.571Z,0.86
2018-03-20T20:43:29.068Z,0.87
2018-03-20T20:45:56.492Z,0.86
2018-03-20T20:48:23.906Z,0.88
2018-03-20T20:50:51.332Z,0.88
2018-03-20T20:53:18.748Z,0.91
2018-03-20T20:55:46.154Z,0.94
2018-03-20T20:58:13.566Z,0.97
2018-03-20T21:00:40.988Z,0.97
2018-03-20T21:03:08.400Z,1.08
2018-03-20T21:05:35.846Z,1.03
2018-03-20T21:08:03.393Z,1.00
2018-03-20T21:10:30.989Z,1.02
2018-03-20T21:12:58.614Z,1.02
2018-03-20T21:15:26.085Z,1.00
2018-03-20T21:17:53.646Z,1.08
2018-03-20T21:20:21.340Z,1.05
2018-03-20T21:22:48.853Z,1.03
2018-03-20T21:25:16.425Z,1.01
2018-03-20T21:27:43.933Z,1.03
2018-03-20T21:30:11.523Z,0.99
2018-03-20T21:32:39.049Z,0.97
2018-03-20T21:35:06.534Z,0.94
2018-03-20T21:37:34.005Z,0.93
2018-03-20T21:40:01.544Z,0.94
2018-03-20T21:42:32.194Z,0.99
2018-03-20T21:45:01.542Z,0.99
2018-03-20T21:47:31.610Z,0.96
2018-03-20T21:49:59.243Z,0.95
2018-03-20T21:52:28.367Z,0.91
2018-03-20T21:54:57.183Z,0.86
2018-03-20T21:57:26.570Z,0.90
2018-03-20T22:02:43.615Z,0.84
2018-03-20T22:05:13.638Z,0.85
2018-03-20T22:07:43.382Z,0.88
2018-03-20T22:10:12.928Z,0.87
2018-03-20T22:12:42.311Z,0.85
2018-03-20T22:15:12.250Z,0.93
2018-03-20T22:17:41.796Z,0.95
2018-03-20T22:20:11.628Z,0.96
2018-03-20T22:22:40.591Z,0.99
2018-03-20T22:25:09.834Z,0.95
2018-03-20T22:27:39.613Z,0.89
2018-03-20T22:30:08.819Z,0.91
2018-03-20T22:32:38.734Z,0.88
2018-03-20T22:35:08.711Z,0.80
2018-03-20T22:37:38.231Z,0.74
2018-03-20T22:40:08.331Z,0.66
2018-03-20T22:42:38.891Z,0.60
2018-03-20T22:45:09.791Z,0.55
2018-03-20T22:47:39.133Z,0.45
2018-03-20T22:50:09.568Z,0.28
2018-03-20T22:52:39.430Z,0.31
2018-03-20T22:55:09.388Z,0.36
2018-03-20T22:57:41.138Z,0.39
2018-03-20T23:00:11.039Z,0.19
2018-03-20T23:02:41.039Z,0.13
2018-03-20T23:05:10.449Z,0.09
2018-03-20T23:07:40.087Z,0.06
2018-03-20T23:10:10.068Z,-0.02
2018-03-20T23:12:40.268Z,-0.06
2018-03-20T23:15:10.048Z,-0.04
2018-03-20T23:17:40.138Z,-0.12
2018-03-20T23:20:10.476Z,-0.23
2018-03-20T23:22:40.381Z,-0.21
2018-03-20T23:25:10.638Z,-0.23
2018-03-20T23:27:39.811Z,-0.25
2018-03-20T23:30:08.629Z,-0.48
2018-03-20T23:32:38.577Z,-0.47
2018-03-20T23:35:08.343Z,-0.33
2018-03-20T23:37:38.125Z,-0.31
2018-03-20T23:40:06.832Z,-0.31
2018-03-20T23:42:36.936Z,-0.43
2018-03-20T23:45:07.019Z,-0.42
2018-03-20T23:47:36.284Z,-0.47
2018-03-20T23:50:05.893Z,-0.60
2018-03-20T23:52:35.652Z,-0.62
2018-03-20T23:55:05.909Z,-0.70
2018-03-20T23:57:35.963Z,-0.70
